sensor_id;sensor_type;location;lat;lon;timestamp;temperature;humidity
4097;DHT22;2062;50.694;7.246;2023-06-22T00:00:47;22.70;46.90
4097;DHT22;2062;50.694;7.246;2023-06-22T00:03:14;22.60;46.90
4097;DHT22;2062;50.694;7.246;2023-06-22T00:05:40;22.70;47.00
4097;DHT22;2062;50.694;7.246;2023-06-22T00:08:07;22.70;47.40
4097;DHT22;2062;50.694;7.246;2023-06-22T00:10:34;22.70;47.60
4097;DHT22;2062;50.694;7.246;2023-06-22T00:13:03;22.70;47.80
4097;DHT22;2062;50.694;7.246;2023-06-22T00:15:30;22.60;47.60
4097;DHT22;2062;50.694;7.246;2023-06-22T00:17:56;22.60;47.80
4097;DHT22;2062;50.694;7.246;2023-06-22T00:20:24;22.70;47.80
4097;DHT22;2062;50.694;7.246;2023-06-22T00:22:53;22.70;47.80
4097;DHT22;2062;50.694;7.246;2023-06-22T00:25:20;22.70;47.90
4097;DHT22;2062;50.694;7.246;2023-06-22T00:27:47;22.60;48.00
4097;DHT22;2062;50.694;7.246;2023-06-22T00:30:16;22.60;48.00
4097;DHT22;2062;50.694;7.246;2023-06-22T00:32:43;22.60;48.00
4097;DHT22;2062;50.694;7.246;2023-06-22T00:35:11;22.60;47.90
4097;DHT22;2062;50.694;7.246;2023-06-22T00:37:38;22.60;48.10
4097;DHT22;2062;50.694;7.246;2023-06-22T00:40:08;22.60;48.30
4097;DHT22;2062;50.694;7.246;2023-06-22T00:42:36;22.60;48.20
4097;DHT22;2062;50.694;7.246;2023-06-22T00:45:04;22.60;48.30
4097;DHT22;2062;50.694;7.246;2023-06-22T00:47:33;22.60;48.50
4097;DHT22;2062;50.694;7.246;2023-06-22T00:50:00;22.60;48.70
4097;DHT22;2062;50.694;7.246;2023-06-22T00:52:28;22.60;48.50
4097;DHT22;2062;50.694;7.246;2023-06-22T00:54:57;22.60;48.80
4097;DHT22;2062;50.694;7.246;2023-06-22T00:57:28;22.60;48.70
4097;DHT22;2062;50.694;7.246;2023-06-22T00:59:55;22.60;48.80
4097;DHT22;2062;50.694;7.246;2023-06-22T01:02:22;22.60;48.90
4097;DHT22;2062;50.694;7.246;2023-06-22T01:04:50;22.50;48.90
4097;DHT22;2062;50.694;7.246;2023-06-22T01:07:22;22.60;49.00
4097;DHT22;2062;50.694;7.246;2023-06-22T01:09:59;22.60;49.20
4097;DHT22;2062;50.694;7.246;2023-06-22T01:12:30;22.60;49.30
4097;DHT22;2062;50.694;7.246;2023-06-22T01:15:08;22.50;49.30
4097;DHT22;2062;50.694;7.246;2023-06-22T01:17:36;22.50;49.30
4097;DHT22;2062;50.694;7.246;2023-06-22T01:20:09;22.50;49.40
4097;DHT22;2062;50.694;7.246;2023-06-22T01:22:46;22.50;49.50
4097;DHT22;2062;50.694;7.246;2023-06-22T01:25:20;22.50;49.80
4097;DHT22;2062;50.694;7.246;2023-06-22T01:27:52;22.50;49.50
4097;DHT22;2062;50.694;7.246;2023-06-22T01:30:22;22.50;49.50
4097;DHT22;2062;50.694;7.246;2023-06-22T01:32:53;22.50;49.60
4097;DHT22;2062;50.694;7.246;2023-06-22T01:35:21;22.50;49.80
4097;DHT22;2062;50.694;7.246;2023-06-22T01:37:49;22.50;49.80
4097;DHT22;2062;50.694;7.246;2023-06-22T01:40:17;22.40;49.60
4097;DHT22;2062;50.694;7.246;2023-06-22T01:42:45;22.40;49.70
4097;DHT22;2062;50.694;7.246;2023-06-22T01:45:12;22.40;49.60
4097;DHT22;2062;50.694;7.246;2023-06-22T01:47:41;22.40;49.80
4097;DHT22;2062;50.694;7.246;2023-06-22T01:50:09;22.30;49.90
4097;DHT22;2062;50.694;7.246;2023-06-22T01:52:36;22.40;50.10
4097;DHT22;2062;50.694;7.246;2023-06-22T01:55:03;22.40;50.10
4097;DHT22;2062;50.694;7.246;2023-06-22T01:57:32;22.30;50.30
4097;DHT22;2062;50.694;7.246;2023-06-22T02:00:01;22.30;50.50
4097;DHT22;2062;50.694;7.246;2023-06-22T02:02:33;22.30;50.70
4097;DHT22;2062;50.694;7.246;2023-06-22T02:05:06;22.30;50.80
4097;DHT22;2062;50.694;7.246;2023-06-22T02:07:46;22.30;50.60
4097;DHT22;2062;50.694;7.246;2023-06-22T02:10:16;22.30;51.20
4097;DHT22;2062;50.694;7.246;2023-06-22T02:12:47;22.20;51.20
4097;DHT22;2062;50.694;7.246;2023-06-22T02:15:15;22.20;51.00
4097;DHT22;2062;50.694;7.246;2023-06-22T02:17:42;22.20;50.70
4097;DHT22;2062;50.694;7.246;2023-06-22T02:20:14;22.20;50.90
4097;DHT22;2062;50.694;7.246;2023-06-22T02:22:41;22.20;50.90
4097;DHT22;2062;50.694;7.246;2023-06-22T02:25:08;22.20;50.80
4097;DHT22;2062;50.694;7.246;2023-06-22T02:27:35;22.20;51.10
4097;DHT22;2062;50.694;7.246;2023-06-22T02:30:02;22.20;51.00
4097;DHT22;2062;50.694;7.246;2023-06-22T02:32:29;22.20;51.00
4097;DHT22;2062;50.694;7.246;2023-06-22T02:34:56;22.20;51.40
4097;DHT22;2062;50.694;7.246;2023-06-22T02:37:24;22.20;51.40
4097;DHT22;2062;50.694;7.246;2023-06-22T02:39:50;22.20;51.40
4097;DHT22;2062;50.694;7.246;2023-06-22T02:42:17;22.20;51.50
4097;DHT22;2062;50.694;7.246;2023-06-22T02:44:46;22.20;51.40
4097;DHT22;2062;50.694;7.246;2023-06-22T02:47:13;22.20;51.50
4097;DHT22;2062;50.694;7.246;2023-06-22T02:49:39;22.20;51.60
4097;DHT22;2062;50.694;7.246;2023-06-22T02:52:07;22.20;51.80
4097;DHT22;2062;50.694;7.246;2023-06-22T02:54:35;22.20;51.80
4097;DHT22;2062;50.694;7.246;2023-06-22T02:57:02;22.20;51.80
4097;DHT22;2062;50.694;7.246;2023-06-22T02:59:29;22.20;51.90
4097;DHT22;2062;50.694;7.246;2023-06-22T03:01:56;22.10;51.80
4097;DHT22;2062;50.694;7.246;2023-06-22T03:04:23;22.10;52.10
4097;DHT22;2062;50.694;7.246;2023-06-22T03:06:50;22.10;51.80
4097;DHT22;2062;50.694;7.246;2023-06-22T03:09:17;22.10;51.60
4097;DHT22;2062;50.694;7.246;2023-06-22T03:11:45;22.10;51.60
4097;DHT22;2062;50.694;7.246;2023-06-22T03:14:11;22.10;52.10
4097;DHT22;2062;50.694;7.246;2023-06-22T03:16:38;22.10;52.20
4097;DHT22;2062;50.694;7.246;2023-06-22T03:19:06;22.10;52.20
4097;DHT22;2062;50.694;7.246;2023-06-22T03:21:33;22.00;52.10
4097;DHT22;2062;50.694;7.246;2023-06-22T03:23:59;22.10;52.10
4097;DHT22;2062;50.694;7.246;2023-06-22T03:26:26;22.10;52.20
4097;DHT22;2062;50.694;7.246;2023-06-22T03:28:54;22.10;52.30
4097;DHT22;2062;50.694;7.246;2023-06-22T03:31:22;22.10;52.40
4097;DHT22;2062;50.694;7.246;2023-06-22T03:33:48;22.10;52.60
4097;DHT22;2062;50.694;7.246;2023-06-22T03:36:16;22.00;52.50
4097;DHT22;2062;50.694;7.246;2023-06-22T03:38:44;22.10;52.40
4097;DHT22;2062;50.694;7.246;2023-06-22T03:41:11;22.00;52.60
4097;DHT22;2062;50.694;7.246;2023-06-22T03:43:38;22.00;52.60
4097;DHT22;2062;50.694;7.246;2023-06-22T03:46:06;22.00;52.90
4097;DHT22;2062;50.694;7.246;2023-06-22T03:48:33;22.00;52.90
4097;DHT22;2062;50.694;7.246;2023-06-22T03:51:00;22.00;53.10
4097;DHT22;2062;50.694;7.246;2023-06-22T03:53:28;22.00;53.30
4097;DHT22;2062;50.694;7.246;2023-06-22T03:55:55;22.00;53.30
4097;DHT22;2062;50.694;7.246;2023-06-22T03:58:22;22.00;53.40
4097;DHT22;2062;50.694;7.246;2023-06-22T04:00:50;22.00;53.50
4097;DHT22;2062;50.694;7.246;2023-06-22T04:03:19;22.00;53.50
4097;DHT22;2062;50.694;7.246;2023-06-22T04:05:46;22.00;53.50
4097;DHT22;2062;50.694;7.246;2023-06-22T04:08:14;22.00;53.90
4097;DHT22;2062;50.694;7.246;2023-06-22T04:10:41;21.90;54.20
4097;DHT22;2062;50.694;7.246;2023-06-22T04:13:08;21.90;54.10
4097;DHT22;2062;50.694;7.246;2023-06-22T04:15:35;21.90;54.30
4097;DHT22;2062;50.694;7.246;2023-06-22T04:18:02;21.90;54.20
4097;DHT22;2062;50.694;7.246;2023-06-22T04:20:31;21.90;54.40
4097;DHT22;2062;50.694;7.246;2023-06-22T04:22:57;21.90;54.30
4097;DHT22;2062;50.694;7.246;2023-06-22T04:25:24;21.90;54.40
4097;DHT22;2062;50.694;7.246;2023-06-22T04:27:51;21.90;53.90
4097;DHT22;2062;50.694;7.246;2023-06-22T04:30:18;21.90;54.80
4097;DHT22;2062;50.694;7.246;2023-06-22T04:32:45;21.90;54.90
4097;DHT22;2062;50.694;7.246;2023-06-22T04:35:24;21.90;54.60
4097;DHT22;2062;50.694;7.246;2023-06-22T04:37:53;21.90;54.50
4097;DHT22;2062;50.694;7.246;2023-06-22T04:40:21;21.90;55.10
4097;DHT22;2062;50.694;7.246;2023-06-22T04:42:48;21.90;55.10
4097;DHT22;2062;50.694;7.246;2023-06-22T04:45:19;22.00;55.40
4097;DHT22;2062;50.694;7.246;2023-06-22T04:47:46;21.90;55.60
4097;DHT22;2062;50.694;7.246;2023-06-22T04:50:13;21.90;55.60
4097;DHT22;2062;50.694;7.246;2023-06-22T04:52:40;21.90;55.80
4097;DHT22;2062;50.694;7.246;2023-06-22T04:55:08;21.90;55.60
4097;DHT22;2062;50.694;7.246;2023-06-22T04:57:35;21.90;55.70
4097;DHT22;2062;50.694;7.246;2023-06-22T05:00:05;21.90;55.70
4097;DHT22;2062;50.694;7.246;2023-06-22T05:02:38;21.90;55.80
4097;DHT22;2062;50.694;7.246;2023-06-22T05:05:05;21.90;56.10
4097;DHT22;2062;50.694;7.246;2023-06-22T05:07:33;21.90;56.00
4097;DHT22;2062;50.694;7.246;2023-06-22T05:10:00;21.90;56.30
4097;DHT22;2062;50.694;7.246;2023-06-22T05:12:29;21.90;56.60
4097;DHT22;2062;50.694;7.246;2023-06-22T05:14:56;21.90;56.50
4097;DHT22;2062;50.694;7.246;2023-06-22T05:17:23;21.90;56.60
4097;DHT22;2062;50.694;7.246;2023-06-22T05:19:51;21.90;56.50
4097;DHT22;2062;50.694;7.246;2023-06-22T05:22:18;21.90;56.40
4097;DHT22;2062;50.694;7.246;2023-06-22T05:24:45;21.90;56.30
4097;DHT22;2062;50.694;7.246;2023-06-22T05:27:12;22.00;56.30
4097;DHT22;2062;50.694;7.246;2023-06-22T05:29:40;22.00;56.40
4097;DHT22;2062;50.694;7.246;2023-06-22T05:32:08;22.00;56.30
4097;DHT22;2062;50.694;7.246;2023-06-22T05:34:35;22.00;56.50
4097;DHT22;2062;50.694;7.246;2023-06-22T05:37:02;22.00;56.30
4097;DHT22;2062;50.694;7.246;2023-06-22T05:39:29;22.10;56.20
4097;DHT22;2062;50.694;7.246;2023-06-22T05:41:55;22.10;56.40
4097;DHT22;2062;50.694;7.246;2023-06-22T05:44:22;22.20;56.60
4097;DHT22;2062;50.694;7.246;2023-06-22T05:46:50;22.20;56.50
4097;DHT22;2062;50.694;7.246;2023-06-22T05:49:17;22.30;56.90
4097;DHT22;2062;50.694;7.246;2023-06-22T05:51:44;22.40;56.70
4097;DHT22;2062;50.694;7.246;2023-06-22T05:54:11;22.50;56.50
4097;DHT22;2062;50.694;7.246;2023-06-22T05:56:39;22.60;56.30
4097;DHT22;2062;50.694;7.246;2023-06-22T05:59:05;22.70;56.30
4097;DHT22;2062;50.694;7.246;2023-06-22T06:01:32;22.70;56.00
4097;DHT22;2062;50.694;7.246;2023-06-22T06:04:02;22.80;55.90
4097;DHT22;2062;50.694;7.246;2023-06-22T06:06:30;23.00;56.10
4097;DHT22;2062;50.694;7.246;2023-06-22T06:08:57;23.00;55.90
4097;DHT22;2062;50.694;7.246;2023-06-22T06:11:24;23.00;55.80
4097;DHT22;2062;50.694;7.246;2023-06-22T06:13:51;23.10;55.60
4097;DHT22;2062;50.694;7.246;2023-06-22T06:16:18;23.20;55.60
4097;DHT22;2062;50.694;7.246;2023-06-22T06:18:45;23.30;55.50
4097;DHT22;2062;50.694;7.246;2023-06-22T06:21:15;23.30;55.50
4097;DHT22;2062;50.694;7.246;2023-06-22T06:23:42;23.40;55.40
4097;DHT22;2062;50.694;7.246;2023-06-22T06:26:09;23.50;55.60
4097;DHT22;2062;50.694;7.246;2023-06-22T06:28:36;23.50;55.50
4097;DHT22;2062;50.694;7.246;2023-06-22T06:31:02;23.60;55.30
4097;DHT22;2062;50.694;7.246;2023-06-22T06:33:32;23.70;55.30
4097;DHT22;2062;50.694;7.246;2023-06-22T06:35:59;23.80;55.20
4097;DHT22;2062;50.694;7.246;2023-06-22T06:38:30;23.80;55.10
4097;DHT22;2062;50.694;7.246;2023-06-22T06:40:57;23.90;55.20
4097;DHT22;2062;50.694;7.246;2023-06-22T06:43:24;24.00;55.50
4097;DHT22;2062;50.694;7.246;2023-06-22T06:45:51;24.10;54.80
4097;DHT22;2062;50.694;7.246;2023-06-22T06:48:18;24.10;54.70
4097;DHT22;2062;50.694;7.246;2023-06-22T06:50:45;24.20;55.30
4097;DHT22;2062;50.694;7.246;2023-06-22T06:53:11;24.30;54.60
4097;DHT22;2062;50.694;7.246;2023-06-22T06:55:39;24.30;54.60
4097;DHT22;2062;50.694;7.246;2023-06-22T06:58:06;24.40;54.60
4097;DHT22;2062;50.694;7.246;2023-06-22T07:00:35;24.40;54.60
4097;DHT22;2062;50.694;7.246;2023-06-22T07:03:02;24.40;54.70
4097;DHT22;2062;50.694;7.246;2023-06-22T07:05:29;24.50;54.60
4097;DHT22;2062;50.694;7.246;2023-06-22T07:07:56;24.50;54.70
4097;DHT22;2062;50.694;7.246;2023-06-22T07:10:22;24.60;54.60
4097;DHT22;2062;50.694;7.246;2023-06-22T07:12:51;24.60;54.60
4097;DHT22;2062;50.694;7.246;2023-06-22T07:15:17;24.70;54.70
4097;DHT22;2062;50.694;7.246;2023-06-22T07:17:44;24.70;54.50
4097;DHT22;2062;50.694;7.246;2023-06-22T07:20:12;24.70;54.50
4097;DHT22;2062;50.694;7.246;2023-06-22T07:22:39;24.80;54.50
4097;DHT22;2062;50.694;7.246;2023-06-22T07:25:07;24.90;54.60
4097;DHT22;2062;50.694;7.246;2023-06-22T07:27:36;24.90;54.30
4097;DHT22;2062;50.694;7.246;2023-06-22T07:30:06;25.00;54.30
4097;DHT22;2062;50.694;7.246;2023-06-22T07:32:33;25.10;54.30
4097;DHT22;2062;50.694;7.246;2023-06-22T07:35:00;25.10;54.20
4097;DHT22;2062;50.694;7.246;2023-06-22T07:37:27;25.10;54.00
4097;DHT22;2062;50.694;7.246;2023-06-22T07:39:54;25.30;53.90
4097;DHT22;2062;50.694;7.246;2023-06-22T07:42:24;25.30;53.90
4097;DHT22;2062;50.694;7.246;2023-06-22T07:44:51;25.40;53.80
4097;DHT22;2062;50.694;7.246;2023-06-22T07:47:19;25.50;53.70
4097;DHT22;2062;50.694;7.246;2023-06-22T07:49:46;25.60;53.70
4097;DHT22;2062;50.694;7.246;2023-06-22T07:52:13;25.70;53.60
4097;DHT22;2062;50.694;7.246;2023-06-22T07:54:39;25.80;53.70
4097;DHT22;2062;50.694;7.246;2023-06-22T07:57:06;26.00;53.90
4097;DHT22;2062;50.694;7.246;2023-06-22T07:59:33;26.10;54.00
4097;DHT22;2062;50.694;7.246;2023-06-22T08:02:00;26.30;53.60
4097;DHT22;2062;50.694;7.246;2023-06-22T08:04:30;26.40;53.60
4097;DHT22;2062;50.694;7.246;2023-06-22T08:06:59;26.60;53.40
4097;DHT22;2062;50.694;7.246;2023-06-22T08:09:27;26.80;52.90
4097;DHT22;2062;50.694;7.246;2023-06-22T08:11:54;26.90;52.40
4097;DHT22;2062;50.694;7.246;2023-06-22T08:14:22;27.00;52.60
4097;DHT22;2062;50.694;7.246;2023-06-22T08:16:49;27.10;52.20
4097;DHT22;2062;50.694;7.246;2023-06-22T08:19:16;27.30;51.80
4097;DHT22;2062;50.694;7.246;2023-06-22T08:21:44;27.30;51.80
4097;DHT22;2062;50.694;7.246;2023-06-22T08:24:11;27.40;51.50
4097;DHT22;2062;50.694;7.246;2023-06-22T08:26:38;27.50;51.30
4097;DHT22;2062;50.694;7.246;2023-06-22T08:29:05;27.60;51.20
4097;DHT22;2062;50.694;7.246;2023-06-22T08:31:32;27.70;51.10
4097;DHT22;2062;50.694;7.246;2023-06-22T08:34:00;27.80;50.90
4097;DHT22;2062;50.694;7.246;2023-06-22T08:36:27;28.00;51.00
4097;DHT22;2062;50.694;7.246;2023-06-22T08:39:02;28.10;50.90
4097;DHT22;2062;50.694;7.246;2023-06-22T08:41:28;28.40;50.80
4097;DHT22;2062;50.694;7.246;2023-06-22T08:43:56;28.60;50.40
4097;DHT22;2062;50.694;7.246;2023-06-22T08:46:23;28.70;49.70
4097;DHT22;2062;50.694;7.246;2023-06-22T08:48:55;28.90;49.70
4097;DHT22;2062;50.694;7.246;2023-06-22T08:51:23;29.10;49.80
4097;DHT22;2062;50.694;7.246;2023-06-22T08:53:50;29.20;49.10
4097;DHT22;2062;50.694;7.246;2023-06-22T08:56:18;29.30;49.00
4097;DHT22;2062;50.694;7.246;2023-06-22T08:58:45;29.50;49.00
4097;DHT22;2062;50.694;7.246;2023-06-22T09:01:12;29.60;49.20
4097;DHT22;2062;50.694;7.246;2023-06-22T09:03:40;29.70;48.90
4097;DHT22;2062;50.694;7.246;2023-06-22T09:06:07;29.70;48.70
4097;DHT22;2062;50.694;7.246;2023-06-22T09:08:36;29.80;48.50
4097;DHT22;2062;50.694;7.246;2023-06-22T09:11:02;29.80;47.90
4097;DHT22;2062;50.694;7.246;2023-06-22T09:13:32;29.80;47.30
4097;DHT22;2062;50.694;7.246;2023-06-22T09:16:00;29.90;46.70
4097;DHT22;2062;50.694;7.246;2023-06-22T09:18:27;29.90;46.60
4097;DHT22;2062;50.694;7.246;2023-06-22T09:20:54;29.90;46.20
4097;DHT22;2062;50.694;7.246;2023-06-22T09:23:20;30.00;46.70
4097;DHT22;2062;50.694;7.246;2023-06-22T09:25:47;30.00;46.50
4097;DHT22;2062;50.694;7.246;2023-06-22T09:28:14;29.90;45.70
4097;DHT22;2062;50.694;7.246;2023-06-22T09:30:44;29.90;45.60
4097;DHT22;2062;50.694;7.246;2023-06-22T09:33:11;29.90;45.60
4097;DHT22;2062;50.694;7.246;2023-06-22T09:35:38;29.90;45.60
4097;DHT22;2062;50.694;7.246;2023-06-22T09:38:04;29.90;45.70
4097;DHT22;2062;50.694;7.246;2023-06-22T09:40:31;29.90;45.60
4097;DHT22;2062;50.694;7.246;2023-06-22T09:43:03;30.00;46.10
4097;DHT22;2062;50.694;7.246;2023-06-22T09:45:30;30.00;45.70
4097;DHT22;2062;50.694;7.246;2023-06-22T09:47:58;30.00;45.70
4097;DHT22;2062;50.694;7.246;2023-06-22T09:50:25;30.00;45.80
4097;DHT22;2062;50.694;7.246;2023-06-22T09:52:52;30.10;45.70
4097;DHT22;2062;50.694;7.246;2023-06-22T09:55:20;30.00;46.00
4097;DHT22;2062;50.694;7.246;2023-06-22T09:57:47;30.10;45.70
4097;DHT22;2062;50.694;7.246;2023-06-22T10:00:16;30.10;45.30
4097;DHT22;2062;50.694;7.246;2023-06-22T10:02:44;30.10;45.30
4097;DHT22;2062;50.694;7.246;2023-06-22T10:05:13;30.10;45.10
4097;DHT22;2062;50.694;7.246;2023-06-22T10:07:40;30.10;45.00
4097;DHT22;2062;50.694;7.246;2023-06-22T10:10:09;30.00;45.00
4097;DHT22;2062;50.694;7.246;2023-06-22T10:12:35;29.90;44.50
4097;DHT22;2062;50.694;7.246;2023-06-22T10:15:03;29.90;45.30
4097;DHT22;2062;50.694;7.246;2023-06-22T10:17:30;29.80;44.70
4097;DHT22;2062;50.694;7.246;2023-06-22T10:19:57;29.70;44.90
4097;DHT22;2062;50.694;7.246;2023-06-22T10:22:26;29.60;45.00
4097;DHT22;2062;50.694;7.246;2023-06-22T10:24:52;29.60;45.40
4097;DHT22;2062;50.694;7.246;2023-06-22T10:27:19;29.50;45.70
4097;DHT22;2062;50.694;7.246;2023-06-22T10:29:46;29.40;46.10
4097;DHT22;2062;50.694;7.246;2023-06-22T10:32:13;29.30;46.50
4097;DHT22;2062;50.694;7.246;2023-06-22T10:34:39;29.30;46.90
4097;DHT22;2062;50.694;7.246;2023-06-22T10:37:06;29.20;47.10
4097;DHT22;2062;50.694;7.246;2023-06-22T10:39:34;29.10;47.50
4097;DHT22;2062;50.694;7.246;2023-06-22T10:42:01;29.00;47.80
4097;DHT22;2062;50.694;7.246;2023-06-22T10:44:28;28.90;47.90
4097;DHT22;2062;50.694;7.246;2023-06-22T10:46:55;28.80;48.30
4097;DHT22;2062;50.694;7.246;2023-06-22T10:49:21;28.70;48.10
4097;DHT22;2062;50.694;7.246;2023-06-22T10:51:48;28.60;48.50
4097;DHT22;2062;50.694;7.246;2023-06-22T10:54:15;28.50;48.70
4097;DHT22;2062;50.694;7.246;2023-06-22T10:56:45;28.40;48.90
4097;DHT22;2062;50.694;7.246;2023-06-22T10:59:11;28.30;49.10
4097;DHT22;2062;50.694;7.246;2023-06-22T11:01:38;28.20;49.30
4097;DHT22;2062;50.694;7.246;2023-06-22T11:04:05;28.00;49.60
4097;DHT22;2062;50.694;7.246;2023-06-22T11:06:32;27.90;49.00
4097;DHT22;2062;50.694;7.246;2023-06-22T11:08:59;27.80;49.50
4097;DHT22;2062;50.694;7.246;2023-06-22T11:11:26;27.60;49.50
4097;DHT22;2062;50.694;7.246;2023-06-22T11:13:54;27.50;49.70
4097;DHT22;2062;50.694;7.246;2023-06-22T11:16:21;27.30;50.00
4097;DHT22;2062;50.694;7.246;2023-06-22T11:18:48;27.20;50.20
4097;DHT22;2062;50.694;7.246;2023-06-22T11:21:14;27.00;50.20
4097;DHT22;2062;50.694;7.246;2023-06-22T11:23:42;26.80;50.10
4097;DHT22;2062;50.694;7.246;2023-06-22T11:26:09;26.70;50.40
4097;DHT22;2062;50.694;7.246;2023-06-22T11:28:35;26.60;50.70
4097;DHT22;2062;50.694;7.246;2023-06-22T11:31:03;26.50;50.90
4097;DHT22;2062;50.694;7.246;2023-06-22T11:33:32;26.40;51.80
4097;DHT22;2062;50.694;7.246;2023-06-22T11:35:59;26.30;52.00
4097;DHT22;2062;50.694;7.246;2023-06-22T11:38:26;26.30;52.30
4097;DHT22;2062;50.694;7.246;2023-06-22T11:40:53;26.20;53.50
4097;DHT22;2062;50.694;7.246;2023-06-22T11:43:20;26.20;53.50
4097;DHT22;2062;50.694;7.246;2023-06-22T11:45:47;26.20;53.80
4097;DHT22;2062;50.694;7.246;2023-06-22T11:48:16;26.20;53.90
4097;DHT22;2062;50.694;7.246;2023-06-22T11:50:43;26.20;54.00
4097;DHT22;2062;50.694;7.246;2023-06-22T11:53:10;26.20;54.20
4097;DHT22;2062;50.694;7.246;2023-06-22T11:55:36;26.20;54.30
4097;DHT22;2062;50.694;7.246;2023-06-22T11:58:03;26.30;54.40
4097;DHT22;2062;50.694;7.246;2023-06-22T12:00:31;26.30;54.70
4097;DHT22;2062;50.694;7.246;2023-06-22T12:02:58;26.40;54.80
4097;DHT22;2062;50.694;7.246;2023-06-22T12:05:26;26.40;54.60
4097;DHT22;2062;50.694;7.246;2023-06-22T12:07:53;26.40;54.80
4097;DHT22;2062;50.694;7.246;2023-06-22T12:10:21;26.40;55.00
4097;DHT22;2062;50.694;7.246;2023-06-22T12:12:47;26.40;54.90
4097;DHT22;2062;50.694;7.246;2023-06-22T12:15:14;26.40;55.10
4097;DHT22;2062;50.694;7.246;2023-06-22T12:17:41;26.40;54.80
4097;DHT22;2062;50.694;7.246;2023-06-22T12:20:09;26.40;55.10
4097;DHT22;2062;50.694;7.246;2023-06-22T12:22:37;26.40;55.10
4097;DHT22;2062;50.694;7.246;2023-06-22T12:25:05;26.30;54.90
4097;DHT22;2062;50.694;7.246;2023-06-22T12:27:31;26.30;55.50
4097;DHT22;2062;50.694;7.246;2023-06-22T12:29:58;26.30;55.10
4097;DHT22;2062;50.694;7.246;2023-06-22T12:32:25;26.30;55.50
4097;DHT22;2062;50.694;7.246;2023-06-22T12:34:52;26.30;56.10
4097;DHT22;2062;50.694;7.246;2023-06-22T12:37:19;26.40;56.00
4097;DHT22;2062;50.694;7.246;2023-06-22T12:39:47;26.40;56.40
4097;DHT22;2062;50.694;7.246;2023-06-22T12:42:14;26.40;56.20
4097;DHT22;2062;50.694;7.246;2023-06-22T12:44:41;26.50;56.50
4097;DHT22;2062;50.694;7.246;2023-06-22T12:47:08;26.60;56.60
4097;DHT22;2062;50.694;7.246;2023-06-22T12:49:35;26.70;56.30
4097;DHT22;2062;50.694;7.246;2023-06-22T12:52:03;26.80;56.20
4097;DHT22;2062;50.694;7.246;2023-06-22T12:54:30;26.90;55.90
4097;DHT22;2062;50.694;7.246;2023-06-22T12:56:58;27.00;56.70
4097;DHT22;2062;50.694;7.246;2023-06-22T12:59:25;27.10;56.40
4097;DHT22;2062;50.694;7.246;2023-06-22T13:01:51;27.20;56.10
4097;DHT22;2062;50.694;7.246;2023-06-22T13:04:18;27.30;56.00
4097;DHT22;2062;50.694;7.246;2023-06-22T13:06:45;27.30;56.00
4097;DHT22;2062;50.694;7.246;2023-06-22T13:09:13;27.50;55.70
4097;DHT22;2062;50.694;7.246;2023-06-22T13:11:40;27.50;55.80
4097;DHT22;2062;50.694;7.246;2023-06-22T13:14:09;27.60;55.80
4097;DHT22;2062;50.694;7.246;2023-06-22T13:16:36;27.70;55.80
4097;DHT22;2062;50.694;7.246;2023-06-22T13:19:03;27.90;55.70
4097;DHT22;2062;50.694;7.246;2023-06-22T13:21:30;28.10;55.90
4097;DHT22;2062;50.694;7.246;2023-06-22T13:23:58;28.20;55.60
4097;DHT22;2062;50.694;7.246;2023-06-22T13:26:24;28.30;55.30
4097;DHT22;2062;50.694;7.246;2023-06-22T13:28:53;28.40;54.80
4097;DHT22;2062;50.694;7.246;2023-06-22T13:31:21;28.50;54.50
4097;DHT22;2062;50.694;7.246;2023-06-22T13:33:48;28.70;54.30
4097;DHT22;2062;50.694;7.246;2023-06-22T13:36:17;28.90;54.00
4097;DHT22;2062;50.694;7.246;2023-06-22T13:38:45;29.00;54.30
4097;DHT22;2062;50.694;7.246;2023-06-22T13:41:11;29.10;54.10
4097;DHT22;2062;50.694;7.246;2023-06-22T13:43:38;29.30;53.60
4097;DHT22;2062;50.694;7.246;2023-06-22T13:46:05;29.40;53.30
4097;DHT22;2062;50.694;7.246;2023-06-22T13:48:33;29.60;52.90
4097;DHT22;2062;50.694;7.246;2023-06-22T13:51:00;29.70;52.80
4097;DHT22;2062;50.694;7.246;2023-06-22T13:53:26;29.80;52.60
4097;DHT22;2062;50.694;7.246;2023-06-22T13:55:53;29.90;52.30
4097;DHT22;2062;50.694;7.246;2023-06-22T13:58:20;30.10;52.20
4097;DHT22;2062;50.694;7.246;2023-06-22T14:00:47;30.20;51.80
4097;DHT22;2062;50.694;7.246;2023-06-22T14:03:14;30.30;51.50
4097;DHT22;2062;50.694;7.246;2023-06-22T14:05:43;30.30;50.90
4097;DHT22;2062;50.694;7.246;2023-06-22T14:08:11;30.40;49.60
4097;DHT22;2062;50.694;7.246;2023-06-22T14:10:38;30.30;49.70
4097;DHT22;2062;50.694;7.246;2023-06-22T14:13:04;30.30;49.70
4097;DHT22;2062;50.694;7.246;2023-06-22T14:15:32;30.30;49.60
4097;DHT22;2062;50.694;7.246;2023-06-22T14:17:59;30.30;49.30
4097;DHT22;2062;50.694;7.246;2023-06-22T14:20:26;30.20;49.20
4097;DHT22;2062;50.694;7.246;2023-06-22T14:22:54;30.20;49.00
4097;DHT22;2062;50.694;7.246;2023-06-22T14:25:20;30.10;48.80
4097;DHT22;2062;50.694;7.246;2023-06-22T14:27:47;30.00;48.80
4097;DHT22;2062;50.694;7.246;2023-06-22T14:30:14;29.90;48.10
4097;DHT22;2062;50.694;7.246;2023-06-22T14:32:43;29.80;48.30
4097;DHT22;2062;50.694;7.246;2023-06-22T14:35:10;29.70;48.50
4097;DHT22;2062;50.694;7.246;2023-06-22T14:37:37;29.60;48.60
4097;DHT22;2062;50.694;7.246;2023-06-22T14:40:06;29.40;48.70
4097;DHT22;2062;50.694;7.246;2023-06-22T14:42:33;29.30;49.00
4097;DHT22;2062;50.694;7.246;2023-06-22T14:45:00;29.10;49.20
4097;DHT22;2062;50.694;7.246;2023-06-22T14:47:27;29.00;49.30
4097;DHT22;2062;50.694;7.246;2023-06-22T14:49:54;28.90;49.00
4097;DHT22;2062;50.694;7.246;2023-06-22T14:52:21;28.70;49.10
4097;DHT22;2062;50.694;7.246;2023-06-22T14:54:48;28.50;49.30
4097;DHT22;2062;50.694;7.246;2023-06-22T14:57:18;28.40;49.70
4097;DHT22;2062;50.694;7.246;2023-06-22T14:59:45;28.30;49.80
4097;DHT22;2062;50.694;7.246;2023-06-22T15:02:12;28.10;50.40
4097;DHT22;2062;50.694;7.246;2023-06-22T15:04:39;27.90;50.30
4097;DHT22;2062;50.694;7.246;2023-06-22T15:07:06;27.80;50.50
4097;DHT22;2062;50.694;7.246;2023-06-22T15:09:33;27.60;50.80
4097;DHT22;2062;50.694;7.246;2023-06-22T15:12:00;27.40;50.90
4097;DHT22;2062;50.694;7.246;2023-06-22T15:14:32;27.20;51.10
4097;DHT22;2062;50.694;7.246;2023-06-22T15:16:59;27.10;51.30
4097;DHT22;2062;50.694;7.246;2023-06-22T15:19:26;26.90;51.00
4097;DHT22;2062;50.694;7.246;2023-06-22T15:21:52;26.80;51.30
4097;DHT22;2062;50.694;7.246;2023-06-22T15:24:19;26.70;51.50
4097;DHT22;2062;50.694;7.246;2023-06-22T15:26:46;26.50;51.70
4097;DHT22;2062;50.694;7.246;2023-06-22T15:29:12;26.50;51.60
4097;DHT22;2062;50.694;7.246;2023-06-22T15:31:41;26.30;51.80
4097;DHT22;2062;50.694;7.246;2023-06-22T15:34:07;26.20;52.30
4097;DHT22;2062;50.694;7.246;2023-06-22T15:36:35;26.10;52.20
4097;DHT22;2062;50.694;7.246;2023-06-22T15:39:01;26.00;52.60
4097;DHT22;2062;50.694;7.246;2023-06-22T15:41:28;25.90;52.10
4097;DHT22;2062;50.694;7.246;2023-06-22T15:43:55;25.80;52.20
4097;DHT22;2062;50.694;7.246;2023-06-22T15:46:22;25.70;52.90
4097;DHT22;2062;50.694;7.246;2023-06-22T15:48:50;25.60;52.90
4097;DHT22;2062;50.694;7.246;2023-06-22T15:51:17;25.50;53.10
4097;DHT22;2062;50.694;7.246;2023-06-22T15:53:44;25.40;53.50
4097;DHT22;2062;50.694;7.246;2023-06-22T15:56:10;25.30;53.90
4097;DHT22;2062;50.694;7.246;2023-06-22T15:58:37;25.20;53.70
4097;DHT22;2062;50.694;7.246;2023-06-22T16:01:05;25.10;53.50
4097;DHT22;2062;50.694;7.246;2023-06-22T16:03:31;25.00;53.50